createdAt,value
2022-11-21T00:01:26.132Z,97413.53
2022-11-21T00:03:53.059Z,97400.53
2022-11-21T00:06:20.370Z,97405.75
2022-11-21T00:08:47.677Z,97392.59
2022-11-21T00:11:15.162Z,97399.44
2022-11-21T00:13:42.583Z,97394.00
2022-11-21T00:16:15.965Z,97391.97
2022-11-21T00:18:44.144Z,97387.28
2022-11-21T00:21:17.581Z,97380.63
2022-11-21T00:23:46.009Z,97382.00
2022-11-21T00:26:15.118Z,97382.03
2022-11-21T00:28:42.167Z,97394.38
2022-11-21T00:31:17.492Z,97385.72
2022-11-21T00:33:44.383Z,97385.56
2022-11-21T00:36:11.519Z,97385.59
2022-11-21T00:38:38.566Z,97381.84
2022-11-21T00:41:06.350Z,97377.25
2022-11-21T00:43:35.635Z,97379.81
2022-11-21T00:46:03.315Z,97374.56
2022-11-21T00:48:32.224Z,97378.88
2022-11-21T00:51:00.574Z,97367.09
2022-11-21T00:53:28.201Z,97377.63
2022-11-21T00:55:55.403Z,97360.94
2022-11-21T00:58:22.282Z,97358.19
2022-11-21T01:00:49.343Z,97361.09
2022-11-21T01:03:16.365Z,97347.75
2022-11-21T01:05:43.456Z,97344.72
2022-11-21T01:08:10.345Z,97345.41
2022-11-21T01:10:37.295Z,97338.38
2022-11-21T01:13:04.623Z,97343.16
2022-11-21T01:15:31.515Z,97345.59
2022-11-21T01:17:58.391Z,97349.28
2022-11-21T01:20:25.273Z,97342.31
2022-11-21T01:22:52.265Z,97340.50
2022-11-21T01:25:19.160Z,97345.03
2022-11-21T01:27:46.047Z,97349.78
2022-11-21T01:30:14.460Z,97352.63
2022-11-21T01:32:41.398Z,97339.22
2022-11-21T01:35:08.711Z,97357.91
2022-11-21T01:37:36.178Z,97357.44
2022-11-21T01:40:03.451Z,97350.50
2022-11-21T01:42:52.291Z,97338.03
2022-11-21T01:45:54.741Z,97354.22
2022-11-21T01:48:29.798Z,97360.31
2022-11-21T01:51:04.288Z,97348.94
2022-11-21T01:53:31.511Z,97346.84
2022-11-21T01:55:58.578Z,97333.41
2022-11-21T01:58:26.155Z,97344.88
2022-11-21T02:00:53.177Z,97351.72
2022-11-21T02:03:25.430Z,97349.19
2022-11-21T02:05:52.679Z,97347.06
2022-11-21T02:08:21.631Z,97341.03
2022-11-21T02:11:02.504Z,97340.00
2022-11-21T02:13:29.470Z,97347.34
2022-11-21T02:15:57.352Z,97610.69
2022-11-21T02:18:24.676Z,97610.69
2022-11-21T02:21:11.210Z,97610.69
2022-11-21T02:24:08.843Z,97324.78
2022-11-21T02:26:36.092Z,97320.59
2022-11-21T02:29:03.428Z,97320.59
2022-11-21T02:31:30.318Z,97319.56
2022-11-21T02:33:57.216Z,97312.88
2022-11-21T02:36:43.384Z,97314.88
2022-11-21T02:39:24.082Z,97312.00
2022-11-21T02:42:04.532Z,97308.50
2022-11-21T02:44:55.358Z,97308.50
2022-11-21T02:47:23.895Z,97308.50
2022-11-21T02:50:16.723Z,97308.50
2022-11-21T02:52:43.611Z,97302.69
2022-11-21T02:55:11.893Z,97299.44
2022-11-21T02:57:40.088Z,97295.34
2022-11-21T03:00:08.930Z,97281.97
2022-11-21T03:02:37.074Z,97292.31
2022-11-21T03:05:06.438Z,97291.91
2022-11-21T03:07:33.790Z,97290.81
2022-11-21T03:10:00.879Z,97287.22
2022-11-21T03:12:27.767Z,97289.81
2022-11-21T03:14:54.665Z,97286.59
2022-11-21T03:17:21.817Z,97286.34
2022-11-21T03:19:48.741Z,97279.56
2022-11-21T03:22:16.510Z,97283.88
2022-11-21T03:24:46.069Z,97281.94
2022-11-21T03:27:12.944Z,97280.75
2022-11-21T03:29:39.854Z,97283.03
2022-11-21T03:32:06.770Z,97276.81
2022-11-21T03:34:33.693Z,97280.38
2022-11-21T03:37:00.732Z,97269.50
2022-11-21T03:39:29.101Z,97275.13
2022-11-21T03:41:56.581Z,97279.97
2022-11-21T03:44:23.874Z,97273.84
2022-11-21T03:46:51.389Z,97272.50
2022-11-21T03:49:18.250Z,97281.00
2022-11-21T03:51:45.452Z,97276.28
2022-11-21T03:54:12.661Z,97279.22
2022-11-21T03:56:39.808Z,97279.50
2022-11-21T03:59:06.964Z,97276.16
2022-11-21T04:01:36.872Z,97285.84
2022-11-21T04:04:04.955Z,97284.47
2022-11-21T04:06:32.191Z,97276.94
2022-11-21T04:08:59.066Z,97278.16
2022-11-21T04:11:25.977Z,97271.34
2022-11-21T04:13:53.039Z,97272.63
2022-11-21T04:16:20.450Z,97276.13
2022-11-21T04:18:47.591Z,97277.88
2022-11-21T04:21:14.502Z,97280.41
2022-11-21T04:23:41.393Z,97286.38
2022-11-21T04:26:08.454Z,97282.31
2022-11-21T04:28:35.325Z,97277.78
2022-11-21T04:31:09.975Z,97277.78
2022-11-21T04:33:38.621Z,97269.78
2022-11-21T04:36:07.516Z,97269.03
2022-11-21T04:38:34.468Z,97264.72
2022-11-21T04:41:01.732Z,97255.50
2022-11-21T04:43:28.637Z,97261.88
2022-11-21T04:45:55.547Z,97273.38
2022-11-21T04:48:22.482Z,97267.88
2022-11-21T04:50:49.479Z,97279.41
2022-11-21T04:53:16.382Z,97269.72
2022-11-21T04:55:43.998Z,97271.84
2022-11-21T04:58:11.365Z,97294.91
2022-11-21T05:00:38.223Z,97277.91
2022-11-21T05:03:06.408Z,97260.56
2022-11-21T05:05:33.471Z,97274.38
2022-11-21T05:08:00.547Z,97281.16
2022-11-21T05:10:27.444Z,97287.00
2022-11-21T05:13:19.802Z,97291.00
2022-11-21T05:15:47.553Z,97290.81
2022-11-21T05:18:14.411Z,97289.81
2022-11-21T05:20:41.304Z,97290.91
2022-11-21T05:23:08.202Z,97286.38
2022-11-21T05:25:35.486Z,97296.53
2022-11-21T05:28:02.381Z,97290.94
2022-11-21T05:30:29.714Z,97287.63
2022-11-21T05:32:56.996Z,97290.47
2022-11-21T05:35:24.295Z,97294.75
2022-11-21T05:37:57.317Z,97286.84
2022-11-21T05:40:25.371Z,97294.94
2022-11-21T05:43:11.383Z,97298.19
2022-11-21T05:45:38.932Z,97293.69
2022-11-21T05:48:09.230Z,97300.47
2022-11-21T05:50:36.876Z,97305.50
2022-11-21T05:53:05.461Z,97312.16
2022-11-21T05:55:34.513Z,97315.13
2022-11-21T05:58:01.784Z,97305.59
2022-11-21T06:00:29.673Z,97307.72
2022-11-21T06:03:15.634Z,97310.97
2022-11-21T06:05:42.995Z,97305.06
2022-11-21T06:08:09.976Z,97304.88
2022-11-21T06:10:36.942Z,97302.13
2022-11-21T06:13:04.131Z,97306.97
2022-11-21T06:15:31.083Z,97303.16
2022-11-21T06:18:01.321Z,97310.03
2022-11-21T06:20:28.646Z,97300.78
2022-11-21T06:22:55.917Z,97303.25
2022-11-21T06:25:22.785Z,97305.63
2022-11-21T06:27:49.671Z,97301.41
2022-11-21T06:30:21.968Z,97299.31
2022-11-21T06:32:49.324Z,97291.06
2022-11-21T06:35:16.762Z,97300.47
2022-11-21T06:37:43.689Z,97292.94
2022-11-21T06:40:11.679Z,97295.63
2022-11-21T06:42:38.658Z,97297.50
2022-11-21T06:45:06.189Z,97305.16
2022-11-21T06:47:36.440Z,97308.00
2022-11-21T06:50:03.970Z,97307.50
2022-11-21T06:52:33.768Z,97317.56
2022-11-21T06:55:00.711Z,97327.81
2022-11-21T06:57:28.050Z,97318.31
2022-11-21T06:59:54.996Z,97321.91
2022-11-21T07:02:22.321Z,97328.97
2022-11-21T07:04:49.656Z,97327.63
2022-11-21T07:07:17.040Z,97321.06
2022-11-21T07:09:44.793Z,97319.88
2022-11-21T07:12:31.058Z,97328.63
2022-11-21T07:14:58.412Z,97323.91
2022-11-21T07:17:25.845Z,97329.41
2022-11-21T07:19:53.227Z,97330.56
2022-11-21T07:22:20.692Z,97322.50
2022-11-21T07:24:49.966Z,97321.28
2022-11-21T07:27:16.946Z,97318.44
2022-11-21T07:29:44.361Z,97328.09
2022-11-21T07:32:12.122Z,97320.97
2022-11-21T07:34:39.504Z,97320.66
2022-11-21T07:37:06.879Z,97312.03
2022-11-21T07:39:34.256Z,97318.66
2022-11-21T07:42:01.626Z,97316.50
2022-11-21T07:44:30.020Z,97313.63
2022-11-21T07:46:57.510Z,97314.66
2022-11-21T07:49:25.046Z,97312.75
2022-11-21T07:51:52.508Z,97315.22
2022-11-21T07:54:19.878Z,97320.59
2022-11-21T07:56:47.323Z,97315.22
2022-11-21T07:59:14.710Z,97317.28
2022-11-21T08:01:45.419Z,97323.66
2022-11-21T08:04:13.174Z,97323.47
2022-11-21T08:06:40.660Z,97319.69
2022-11-21T08:09:07.658Z,97318.56
2022-11-21T08:11:39.192Z,97334.44
2022-11-21T08:14:06.239Z,97329.75
2022-11-21T08:17:25.727Z,97338.06
2022-11-21T08:19:52.757Z,97328.81
2022-11-21T08:22:19.707Z,97333.91
2022-11-21T08:24:47.232Z,97324.47
2022-11-21T08:27:17.020Z,97324.91
2022-11-21T08:29:44.561Z,97320.00
2022-11-21T08:32:11.593Z,97325.50
2022-11-21T08:34:45.024Z,97328.41
2022-11-21T08:37:20.549Z,97330.06
2022-11-21T08:39:47.934Z,97323.69
2022-11-21T08:45:07.952Z,97308.91
2022-11-21T08:47:46.040Z,97318.59
2022-11-21T08:50:31.788Z,97316.00
2022-11-21T08:53:02.730Z,97312.78
2022-11-21T08:55:30.902Z,97316.38
2022-11-21T08:57:58.558Z,97313.56
2022-11-21T09:00:26.204Z,97310.84
2022-11-21T09:02:59.130Z,97307.84
2022-11-21T09:05:26.930Z,97307.84
2022-11-21T09:07:58.220Z,97319.44
2022-11-21T09:10:26.915Z,97312.09
2022-11-21T09:12:53.961Z,97308.19
2022-11-21T09:15:39.754Z,97307.69
2022-11-21T09:18:07.952Z,97306.03
2022-11-21T09:20:41.501Z,97307.16
2022-11-21T09:23:14.752Z,97300.69
2022-11-21T09:25:42.523Z,97292.16
2022-11-21T09:28:11.981Z,97286.19
2022-11-21T09:30:40.016Z,97286.28
2022-11-21T09:33:13.241Z,97290.63
2022-11-21T09:35:40.416Z,97289.47
2022-11-21T09:38:07.300Z,97294.94
2022-11-21T09:40:36.038Z,97298.19
2022-11-21T09:43:27.961Z,97290.44
2022-11-21T09:46:15.343Z,97288.53
2022-11-21T09:49:05.463Z,97294.34
2022-11-21T09:51:32.389Z,97293.78
2022-11-21T09:54:02.680Z,97295.31
2022-11-21T09:56:36.197Z,97294.00
2022-11-21T09:59:33.058Z,97297.31
2022-11-21T10:02:00.173Z,97281.63
2022-11-21T10:04:27.877Z,97282.91
2022-11-21T10:07:12.180Z,97272.56
2022-11-21T10:10:12.450Z,97265.59
2022-11-21T10:13:21.101Z,97257.22
2022-11-21T10:16:03.463Z,97251.91
2022-11-21T10:18:53.309Z,97254.84
2022-11-21T10:22:05.632Z,97241.75
2022-11-21T10:24:56.451Z,97248.34
2022-11-21T10:27:31.959Z,97230.97
2022-11-21T10:30:07.532Z,97228.22
2022-11-21T10:32:47.475Z,97227.78
2022-11-21T10:35:24.335Z,97218.81
2022-11-21T10:38:01.015Z,97219.84
2022-11-21T10:41:14.697Z,97206.81
2022-11-21T10:44:22.887Z,97198.69
2022-11-21T10:46:57.929Z,97196.44
2022-11-21T10:49:29.409Z,97194.38
2022-11-21T10:52:20.127Z,97184.69
2022-11-21T10:55:03.642Z,97175.38
2022-11-21T10:57:51.018Z,97167.63
2022-11-21T11:00:26.122Z,97161.53
2022-11-21T11:03:05.890Z,97163.44
2022-11-21T11:05:37.691Z,97161.88
2022-11-21T11:08:14.083Z,97144.84
2022-11-21T11:10:46.583Z,97154.81
2022-11-21T11:13:49.870Z,97149.53
2022-11-21T11:16:22.191Z,97147.28
2022-11-21T11:19:00.405Z,97149.75
2022-11-21T11:21:30.606Z,97132.94
2022-11-21T11:24:09.637Z,97135.94
2022-11-21T11:26:59.753Z,97127.59
2022-11-21T11:29:34.843Z,97139.78
2022-11-21T11:32:22.659Z,97153.22
2022-11-21T11:35:13.530Z,97162.13
2022-11-21T11:37:41.915Z,97159.94
2022-11-21T11:40:37.207Z,97159.13
2022-11-21T11:43:43.788Z,97136.28
2022-11-21T11:47:29.323Z,97128.56
2022-11-21T11:50:11.381Z,97115.97
2022-11-21T11:53:07.693Z,97111.13
2022-11-21T11:55:57.795Z,97094.72
2022-11-21T11:58:26.931Z,97069.03
2022-11-21T12:01:12.608Z,97070.09
2022-11-21T12:03:58.995Z,97065.47
2022-11-21T12:10:04.226Z,97056.53
2022-11-21T12:12:42.410Z,97048.38
2022-11-21T12:15:44.509Z,97042.78
2022-11-21T12:18:23.049Z,97033.59
2022-11-21T12:21:02.423Z,97026.75
2022-11-21T12:23:35.789Z,97017.25
2022-11-21T12:26:23.178Z,97012.56
2022-11-21T12:29:44.678Z,97012.56
2022-11-21T12:32:27.066Z,97001.72
2022-11-21T12:35:20.273Z,96988.06
2022-11-21T12:38:18.245Z,96987.78
2022-11-21T12:41:29.211Z,96996.94
2022-11-21T12:44:41.932Z,96989.47
2022-11-21T12:47:56.569Z,96977.69
2022-11-21T12:50:59.591Z,96977.38
2022-11-21T12:54:33.749Z,96977.81
2022-11-21T12:57:11.884Z,96968.66
2022-11-21T13:00:15.144Z,96959.88
2022-11-21T13:03:23.403Z,96963.91
2022-11-21T13:05:53.547Z,96970.38
2022-11-21T13:08:29.246Z,96958.09
2022-11-21T13:11:46.340Z,96947.94
2022-11-21T13:15:02.190Z,96933.53
2022-11-21T13:17:33.439Z,96936.97
2022-11-21T13:20:27.202Z,96933.66
2022-11-21T13:23:01.071Z,96930.00
2022-11-21T13:25:41.677Z,96912.53
2022-11-21T13:28:11.671Z,96909.47
2022-11-21T13:30:51.590Z,96902.00
2022-11-21T13:33:39.212Z,96890.53
2022-11-21T13:36:10.536Z,96887.41
2022-11-21T13:38:55.412Z,96902.53
2022-11-21T13:41:52.979Z,96906.28
2022-11-21T13:44:32.198Z,96896.13
2022-11-21T13:47:02.504Z,96887.19
2022-11-21T13:49:57.075Z,96887.34
2022-11-21T13:52:55.194Z,96882.03
2022-11-21T13:55:57.940Z,96876.00
2022-11-21T13:58:27.700Z,96873.66
2022-11-21T14:01:18.636Z,96866.59
2022-11-21T14:03:59.000Z,96870.09
2022-11-21T14:06:43.339Z,96856.75
2022-11-21T14:09:13.357Z,96867.09
2022-11-21T14:12:03.607Z,96856.34
2022-11-21T14:15:02.421Z,96849.84
2022-11-21T14:17:47.322Z,96842.69
2022-11-21T14:20:26.531Z,96837.00
2022-11-21T14:22:53.310Z,96827.06
2022-11-21T14:25:27.540Z,96827.72
2022-11-21T14:27:56.121Z,96823.72
2022-11-21T14:30:33.936Z,96832.22
2022-11-21T14:33:29.345Z,96831.16
2022-11-21T14:36:09.624Z,96824.19
2022-11-21T14:39:35.493Z,96820.25
2022-11-21T14:42:02.447Z,96812.16
2022-11-21T14:44:29.875Z,96834.59
2022-11-21T14:47:23.501Z,96829.59
2022-11-21T14:49:54.655Z,96815.81
2022-11-21T14:52:26.875Z,96802.50
2022-11-21T14:57:47.254Z,96803.31
2022-11-21T15:03:23.384Z,96788.41
2022-11-21T15:06:05.346Z,96781.34
2022-11-21T15:11:34.764Z,96772.53
2022-11-21T15:14:16.048Z,96769.03
2022-11-21T15:16:48.074Z,96759.56
2022-11-21T15:19:33.758Z,96751.47
2022-11-21T15:22:04.142Z,96741.16
2022-11-21T15:24:43.732Z,96728.31
2022-11-21T15:27:31.823Z,96717.34
2022-11-21T15:30:10.973Z,96719.38
2022-11-21T15:33:11.694Z,96704.34
2022-11-21T15:35:38.525Z,96700.47
2022-11-21T15:38:25.612Z,96685.50
2022-11-21T15:41:15.950Z,96687.00
2022-11-21T15:43:48.132Z,96679.00
2022-11-21T15:46:25.215Z,96677.44
2022-11-21T15:48:55.202Z,96677.41
2022-11-21T15:51:59.715Z,96665.59
2022-11-21T15:54:21.367Z,96661.56
2022-11-21T15:56:48.621Z,96654.69
2022-11-21T15:59:16.002Z,96647.69
2022-11-21T16:01:43.215Z,96640.00
2022-11-21T16:04:12.664Z,96633.28
2022-11-21T16:06:42.031Z,96630.50
2022-11-21T16:09:09.012Z,96626.03
2022-11-21T16:11:40.470Z,96621.53
2022-11-21T16:14:08.705Z,96619.94
2022-11-21T16:16:43.419Z,96616.69
2022-11-21T16:19:14.774Z,96609.78
2022-11-21T16:21:42.358Z,96604.94
2022-11-21T16:24:09.281Z,96599.38
2022-11-21T16:26:36.157Z,96601.81
2022-11-21T16:29:06.177Z,96596.78
2022-11-21T16:31:34.554Z,96596.72
2022-11-21T16:34:02.484Z,96598.19
2022-11-21T16:36:33.940Z,96590.47
2022-11-21T16:39:08.899Z,96578.94
2022-11-21T16:41:37.255Z,96568.19
2022-11-21T16:44:04.703Z,96566.22
2022-11-21T16:46:31.583Z,96561.72
2022-11-21T16:49:01.543Z,96552.44
2022-11-21T16:51:29.519Z,96550.84
2022-11-21T16:53:59.694Z,96535.97
2022-11-21T16:56:30.130Z,96527.25
2022-11-21T16:58:57.014Z,96519.06
2022-11-21T17:01:26.247Z,96515.00
2022-11-21T17:03:53.468Z,96512.63
2022-11-21T17:06:24.902Z,96498.84
2022-11-21T17:08:51.798Z,96510.63
2022-11-21T17:11:23.880Z,96521.88
2022-11-21T17:13:51.393Z,96530.88
2022-11-21T17:16:22.480Z,96523.91
2022-11-21T17:18:54.848Z,96522.38
2022-11-21T17:21:22.601Z,96527.78
2022-11-21T17:23:50.302Z,96523.25
2022-11-21T17:26:21.166Z,96525.31
2022-11-21T17:28:57.656Z,96514.19
2022-11-21T17:31:25.010Z,96505.88
2022-11-21T17:33:52.143Z,96503.50
2022-11-21T17:36:25.574Z,96494.16
2022-11-21T17:38:54.397Z,96494.63
2022-11-21T17:41:23.359Z,96495.78
2022-11-21T17:43:55.843Z,96493.94
2022-11-21T17:46:25.232Z,96490.56
2022-11-21T17:48:57.088Z,96479.63
2022-11-21T17:51:29.674Z,96466.44
2022-11-21T17:53:57.347Z,96469.69
2022-11-21T17:56:28.016Z,96460.13
2022-11-21T17:58:55.535Z,96463.72
2022-11-21T18:01:23.327Z,96468.66
2022-11-21T18:04:10.143Z,96458.06
2022-11-21T18:06:40.749Z,96436.84
2022-11-21T18:09:11.815Z,96430.22
2022-11-21T18:11:40.417Z,96429.47
2022-11-21T18:14:10.341Z,96429.47
2022-11-21T18:16:39.231Z,96441.25
2022-11-21T18:19:06.645Z,96448.38
2022-11-21T18:21:35.881Z,96444.94
2022-11-21T18:24:02.982Z,96442.38
2022-11-21T18:26:36.539Z,96440.84
2022-11-21T18:29:35.146Z,96442.19
2022-11-21T18:31:54.136Z,96431.81
2022-11-21T18:34:21.509Z,96419.06
2022-11-21T18:36:48.523Z,96411.66
2022-11-21T18:39:15.807Z,96411.84
2022-11-21T18:41:43.690Z,96411.66
2022-11-21T18:44:14.580Z,96414.69
2022-11-21T18:46:44.180Z,96408.78
2022-11-21T18:49:11.064Z,96404.41
2022-11-21T18:51:38.427Z,96392.00
2022-11-21T18:54:08.508Z,96385.16
2022-11-21T18:56:37.363Z,96376.47
2022-11-21T18:59:06.270Z,96376.47
2022-11-21T19:01:35.626Z,96378.19
2022-11-21T19:04:03.361Z,96378.06
2022-11-21T19:06:30.850Z,96386.34
2022-11-21T19:08:58.650Z,96381.69
2022-11-21T19:11:28.856Z,96385.09
2022-11-21T19:13:57.519Z,96383.75
2022-11-21T19:16:27.073Z,96386.97
2022-11-21T19:19:26.443Z,96386.06
2022-11-21T19:21:43.412Z,96389.41
2022-11-21T19:24:13.336Z,96388.31
2022-11-21T19:26:41.019Z,96384.75
2022-11-21T19:29:09.715Z,96386.75
2022-11-21T19:31:44.160Z,96384.06
2022-11-21T19:34:16.992Z,96383.16
2022-11-21T19:36:45.354Z,96379.41
2022-11-21T19:39:12.772Z,96382.69
2022-11-21T19:41:40.235Z,96383.94
2022-11-21T19:44:07.205Z,96376.19
2022-11-21T19:46:39.674Z,96372.53
2022-11-21T19:49:08.398Z,96373.91
2022-11-21T19:51:42.479Z,96365.50
2022-11-21T19:54:12.171Z,96359.66
2022-11-21T19:56:39.796Z,96350.31
2022-11-21T19:59:06.734Z,96348.78
2022-11-21T20:01:34.815Z,96346.28
2022-11-21T20:04:04.636Z,96336.56
2022-11-21T20:06:45.822Z,96345.00
2022-11-21T20:09:16.615Z,96343.59
2022-11-21T20:11:46.915Z,96337.91
2022-11-21T20:14:21.015Z,96333.97
2022-11-21T20:16:49.783Z,96339.31
2022-11-21T20:19:19.297Z,96338.88
2022-11-21T20:21:47.339Z,96334.34
2022-11-21T20:24:14.793Z,96340.72
2022-11-21T20:26:42.717Z,96335.88
2022-11-21T20:29:12.865Z,96339.22
2022-11-21T20:31:40.364Z,96346.41
2022-11-21T20:34:12.695Z,96336.06
2022-11-21T20:36:40.792Z,96331.44
2022-11-21T20:39:14.019Z,96334.88
2022-11-21T20:41:41.554Z,96332.25
2022-11-21T20:47:09.067Z,96327.75
2022-11-21T20:49:36.470Z,96319.59
2022-11-21T20:54:50.669Z,96318.78
2022-11-21T20:57:17.570Z,96309.47
2022-11-21T20:59:44.879Z,96334.09
2022-11-21T21:02:13.613Z,96331.31
2022-11-21T21:04:40.489Z,96328.44
2022-11-21T21:07:07.446Z,96346.25
2022-11-21T21:09:34.920Z,96345.44
2022-11-21T21:12:01.871Z,96345.25
2022-11-21T21:14:28.944Z,96343.03
2022-11-21T21:16:56.226Z,96341.38
2022-11-21T21:19:23.271Z,96331.25
2022-11-21T21:21:50.222Z,96333.22
2022-11-21T21:24:18.121Z,96339.84
2022-11-21T21:26:47.577Z,96334.44
2022-11-21T21:29:19.179Z,96327.22
2022-11-21T21:31:51.065Z,96337.34
2022-11-21T21:34:20.850Z,96340.59
2022-11-21T21:36:48.539Z,96350.63
2022-11-21T21:39:15.443Z,96344.16
2022-11-21T21:41:46.059Z,96321.09
2022-11-21T21:44:14.013Z,96323.06
2022-11-21T21:46:41.136Z,96321.94
2022-11-21T21:49:08.372Z,96322.81
2022-11-21T21:51:37.083Z,96304.91
2022-11-21T21:54:04.497Z,96283.28
2022-11-21T21:56:31.526Z,96299.69
2022-11-21T21:58:59.367Z,96300.50
2022-11-21T22:01:31.897Z,96286.84
2022-11-21T22:04:03.968Z,96303.47
2022-11-21T22:06:33.860Z,96311.41
2022-11-21T22:09:01.061Z,96307.38
2022-11-21T22:11:36.438Z,96280.31
2022-11-21T22:14:07.515Z,96321.66
2022-11-21T22:16:34.453Z,96287.06
2022-11-21T22:19:01.318Z,96283.81
2022-11-21T22:21:34.992Z,96324.63
2022-11-21T22:24:27.803Z,96305.75
2022-11-21T22:26:55.363Z,96321.81
2022-11-21T22:29:22.320Z,96300.22
2022-11-21T22:31:50.780Z,96302.47
2022-11-21T22:34:17.755Z,96305.16
2022-11-21T22:36:44.781Z,96303.00
2022-11-21T22:39:11.751Z,96307.84
2022-11-21T22:41:39.164Z,96307.31
2022-11-21T22:44:06.551Z,96299.69
2022-11-21T22:46:33.881Z,96304.84
2022-11-21T22:49:00.844Z,96302.44
2022-11-21T22:51:29.692Z,96314.66
2022-11-21T22:54:00.120Z,96316.34
2022-11-21T22:56:27.625Z,96327.53
2022-11-21T22:58:55.974Z,96319.81
2022-11-21T23:01:25.502Z,96324.94
2022-11-21T23:03:53.330Z,96323.81
2022-11-21T23:06:23.536Z,96327.94
2022-11-21T23:08:51.837Z,96332.94
2022-11-21T23:11:25.827Z,96318.59
2022-11-21T23:13:52.839Z,96323.09
2022-11-21T23:16:21.027Z,96317.59
2022-11-21T23:18:48.799Z,96324.81
2022-11-21T23:21:16.201Z,96332.31
2022-11-21T23:23:44.000Z,96329.22
2022-11-21T23:26:11.855Z,96327.56
2022-11-21T23:28:39.010Z,96326.25
2022-11-21T23:31:06.110Z,96316.28
2022-11-21T23:33:33.057Z,96317.91
2022-11-21T23:36:00.291Z,96313.28
2022-11-21T23:38:27.232Z,96309.78
2022-11-21T23:40:54.218Z,96301.13
2022-11-21T23:43:21.109Z,96301.88
2022-11-21T23:45:52.343Z,96290.06
2022-11-21T23:48:20.199Z,96286.94
2022-11-21T23:50:48.247Z,96282.81
2022-11-21T23:53:15.180Z,96270.22
2022-11-21T23:55:43.724Z,96270.34
2022-11-21T23:58:11.475Z,96273.03
